M I D A S
Marine Information and Data Acquisition System
Tripno 1479 of the Zeeleeuw from 2008-05-05 14:10:10 to 2008-05-05 14:39:50
Back to CruiseResearch ActivitiesStationsMapUnderway DataData graphs

EquipmentUnitsComments
TimeDGPSUTC
LatitudeDGPSDM.mWGS84
LongitudeDGPSDM.mWGS84
SpeedMeteo Stationm/sRelative wind speed
DirectionMeteo StationdegRelative wind direction
TemperatureMeteo Stationdeg CelciusAir temperature
PressureMeteo StationPaAtmospheric pressure
HumidityMeteo Station%Relative humidity
Missing or incorrect values are displayed as -999
Metereological data collected by the RV Zeeleeuw from 2008-05-05 09:10:15 to 2008-05-05 14:53:45
                                                                                    Next 1000 lines
Time Latitude Longitude Speed Direction Temperature Pressure Humidity
2008-05-05 09:10:25 51°14.599 2°54.009 -999 -999 -999 -999 -999
2008-05-05 09:10:30 51°14.595 2°54.034 -999 -999 -999 -999 -999
2008-05-05 09:10:35 51°14.592 2°54.059 -999 -999 -999 -999 -999
2008-05-05 09:10:40 51°14.588 2°54.084 -999 -999 -999 -999 -999
2008-05-05 09:10:45 51°14.585 2°54.108 -999 -999 -999 -999 -999
2008-05-05 09:10:50 51°14.581 2°54.134 -999 -999 -999 -999 -999
2008-05-05 09:10:55 51°14.578 2°54.159 -999 -999 -999 -999 -999
2008-05-05 09:11:00 51°14.574 2°54.183 -999 -999 -999 -999 -999
2008-05-05 09:11:05 51°14.571 2°54.209 -999 -999 -999 -999 -999
2008-05-05 09:11:10 51°14.567 2°54.234 -999 -999 -999 -999 -999
2008-05-05 09:11:15 51°14.564 2°54.259 -999 -999 -999 -999 -999
2008-05-05 09:11:19 51°14.562 2°54.279 -999 -999 -999 -999 -999
2008-05-05 09:11:24 51°14.557 2°54.303 -999 -999 -999 -999 -999
2008-05-05 09:11:30 51°14.552 2°54.333 -999 -999 -999 -999 -999
2008-05-05 09:11:35 51°14.547 2°54.357 -999 -999 -999 -999 -999
2008-05-05 09:11:40 51°14.544 2°54.382 -999 -999 -999 -999 -999
2008-05-05 09:11:44 51°14.541 2°54.402 -999 -999 -999 -999 -999
2008-05-05 09:11:50 51°14.537 2°54.431 -999 -999 -999 -999 -999
2008-05-05 09:11:55 51°14.533 2°54.456 -999 -999 -999 -999 -999
2008-05-05 09:12:00 51°14.529 2°54.481 -999 -999 -999 -999 -999
2008-05-05 09:12:04 51°14.526 2°54.501 -999 -999 -999 -999 -999
2008-05-05 09:12:10 51°14.521 2°54.529 -999 -999 -999 -999 -999
2008-05-05 09:12:15 51°14.517 2°54.553 -999 -999 -999 -999 -999
2008-05-05 09:12:20 51°14.512 2°54.576 -999 -999 -999 -999 -999
2008-05-05 09:12:25 51°14.506 2°54.599 -999 -999 -999 -999 -999
2008-05-05 09:12:30 51°14.5 2°54.621 -999 -999 -999 -999 -999
2008-05-05 09:12:35 51°14.494 2°54.643 -999 -999 -999 -999 -999
2008-05-05 09:12:40 51°14.488 2°54.664 -999 -999 -999 -999 -999
2008-05-05 09:12:45 51°14.481 2°54.686 -999 -999 -999 -999 -999
2008-05-05 09:12:50 51°14.475 2°54.706 -999 -999 -999 -999 -999
2008-05-05 09:12:55 51°14.468 2°54.727 -999 -999 -999 -999 -999
2008-05-05 09:13:00 51°14.462 2°54.746 -999 -999 -999 -999 -999
2008-05-05 09:13:05 51°14.456 2°54.765 -999 -999 -999 -999 -999
2008-05-05 09:13:10 51°14.451 2°54.784 -999 -999 -999 -999 -999
2008-05-05 09:13:15 51°14.445 2°54.802 -999 -999 -999 -999 -999
2008-05-05 09:13:19 51°14.441 2°54.816 -999 -999 -999 -999 -999
2008-05-05 09:13:25 51°14.434 2°54.837 -999 -999 -999 -999 -999
2008-05-05 09:13:30 51°14.429 2°54.854 -999 -999 -999 -999 -999
2008-05-05 09:13:35 51°14.423 2°54.871 -999 -999 -999 -999 -999
2008-05-05 09:13:39 51°14.419 2°54.884 -999 -999 -999 -999 -999
2008-05-05 09:13:44 51°14.414 2°54.901 -999 -999 -999 -999 -999
2008-05-05 09:13:50 51°14.407 2°54.921 -999 -999 -999 -999 -999
2008-05-05 09:13:55 51°14.403 2°54.938 -999 -999 -999 -999 -999
2008-05-05 09:14:00 51°14.397 2°54.955 -999 -999 -999 -999 -999
2008-05-05 09:14:04 51°14.393 2°54.968 -999 -999 -999 -999 -999
2008-05-05 09:14:10 51°14.387 2°54.989 -999 -999 -999 -999 -999
2008-05-05 09:14:15 51°14.381 2°55.005 -999 -999 -999 -999 -999
2008-05-05 09:14:20 51°14.375 2°55.021 -999 -999 -999 -999 -999
2008-05-05 09:14:25 51°14.368 2°55.038 -999 -999 -999 -999 -999
2008-05-05 09:14:30 51°14.362 2°55.054 -999 -999 -999 -999 -999
2008-05-05 09:14:35 51°14.356 2°55.07 -999 -999 -999 -999 -999
2008-05-05 09:14:40 51°14.35 2°55.086 -999 -999 -999 -999 -999
2008-05-05 09:14:45 51°14.343 2°55.102 -999 -999 -999 -999 -999
2008-05-05 09:14:50 51°14.336 2°55.118 -999 -999 -999 -999 -999
2008-05-05 09:14:55 51°14.329 2°55.134 -999 -999 -999 -999 -999
2008-05-05 09:15:00 51°14.322 2°55.15 -999 -999 -999 -999 -999
2008-05-05 09:15:05 51°14.315 2°55.165 -999 -999 -999 -999 -999
2008-05-05 09:15:10 51°14.308 2°55.18 -999 -999 -999 -999 -999
2008-05-05 09:15:15 51°14.301 2°55.196 -999 -999 -999 -999 -999
2008-05-05 09:15:20 51°14.293 2°55.21 -999 -999 -999 -999 -999
2008-05-05 09:15:25 51°14.285 2°55.225 -999 -999 -999 -999 -999
2008-05-05 09:15:30 51°14.278 2°55.24 -999 -999 -999 -999 -999
2008-05-05 09:15:35 51°14.27 2°55.255 -999 -999 -999 -999 -999
2008-05-05 09:15:39 51°14.264 2°55.266 -999 -999 -999 -999 -999
2008-05-05 09:15:45 51°14.254 2°55.283 -999 -999 -999 -999 -999
2008-05-05 09:15:50 51°14.246 2°55.297 -999 -999 -999 -999 -999
2008-05-05 09:15:55 51°14.237 2°55.31 -999 -999 -999 -999 -999
2008-05-05 09:16:00 51°14.229 2°55.323 -999 -999 -999 -999 -999
2008-05-05 09:16:05 51°14.22 2°55.335 -999 -999 -999 -999 -999
2008-05-05 09:16:10 51°14.211 2°55.347 -999 -999 -999 -999 -999
2008-05-05 09:16:15 51°14.201 2°55.358 -999 -999 -999 -999 -999
2008-05-05 09:16:20 51°14.192 2°55.368 -999 -999 -999 -999 -999
2008-05-05 09:16:25 51°14.182 2°55.378 -999 -999 -999 -999 -999
2008-05-05 09:16:30 51°14.172 2°55.387 -999 -999 -999 -999 -999
2008-05-05 09:16:35 51°14.162 2°55.397 -999 -999 -999 -999 -999
2008-05-05 09:16:40 51°14.152 2°55.406 -999 -999 -999 -999 -999
2008-05-05 09:16:45 51°14.142 2°55.415 -999 -999 -999 -999 -999
2008-05-05 09:16:50 51°14.133 2°55.423 -999 -999 -999 -999 -999
2008-05-05 09:16:55 51°14.124 2°55.431 -999 -999 -999 -999 -999
2008-05-05 09:17:00 51°14.115 2°55.438 -999 -999 -999 -999 -999
2008-05-05 09:17:05 51°14.106 2°55.445 -999 -999 -999 -999 -999
2008-05-05 09:17:10 51°14.097 2°55.452 -999 -999 -999 -999 -999
2008-05-05 09:17:15 51°14.089 2°55.457 -999 -999 -999 -999 -999
2008-05-05 09:17:20 51°14.081 2°55.463 -999 -999 -999 -999 -999
2008-05-05 09:17:25 51°14.074 2°55.468 -999 -999 -999 -999 -999
2008-05-05 09:17:30 51°14.066 2°55.473 -999 -999 -999 -999 -999
2008-05-05 09:17:35 51°14.059 2°55.478 -999 -999 -999 -999 -999
2008-05-05 09:17:40 51°14.053 2°55.483 -999 -999 -999 -999 -999
2008-05-05 09:17:45 51°14.046 2°55.488 -999 -999 -999 -999 -999
2008-05-05 09:17:50 51°14.04 2°55.492 -999 -999 -999 -999 -999
2008-05-05 09:17:55 51°14.034 2°55.496 -999 -999 -999 -999 -999
2008-05-05 09:18:00 51°14.028 2°55.501 -999 -999 -999 -999 -999
2008-05-05 09:18:05 51°14.022 2°55.505 -999 -999 -999 -999 -999
2008-05-05 09:18:10 51°14.016 2°55.51 -999 -999 -999 -999 -999
2008-05-05 09:18:15 51°14.01 2°55.514 -999 -999 -999 -999 -999
2008-05-05 09:18:20 51°14.004 2°55.518 -999 -999 -999 -999 -999
2008-05-05 09:18:25 51°13.998 2°55.522 -999 -999 -999 -999 -999
2008-05-05 09:18:30 51°13.992 2°55.526 -999 -999 -999 -999 -999
2008-05-05 09:18:35 51°13.986 2°55.53 -999 -999 -999 -999 -999
2008-05-05 09:18:40 51°13.98 2°55.534 -999 -999 -999 -999 -999
2008-05-05 09:18:45 51°13.974 2°55.538 -999 -999 -999 -999 -999
2008-05-05 09:18:50 51°13.968 2°55.543 -999 -999 -999 -999 -999
2008-05-05 09:18:55 51°13.961 2°55.547 -999 -999 -999 -999 -999
2008-05-05 09:19:00 51°13.955 2°55.552 -999 -999 -999 -999 -999
2008-05-05 09:19:05 51°13.948 2°55.557 -999 -999 -999 -999 -999
2008-05-05 09:19:10 51°13.942 2°55.561 -999 -999 -999 -999 -999
2008-05-05 09:19:15 51°13.935 2°55.566 -999 -999 -999 -999 -999
2008-05-05 09:19:20 51°13.928 2°55.57 -999 -999 -999 -999 -999
2008-05-05 09:19:25 51°13.922 2°55.575 -999 -999 -999 -999 -999
2008-05-05 09:19:30 51°13.915 2°55.58 -999 -999 -999 -999 -999
2008-05-05 09:19:35 51°13.908 2°55.584 -999 -999 -999 -999 -999
2008-05-05 09:19:40 51°13.901 2°55.589 -999 -999 -999 -999 -999
2008-05-05 09:19:45 51°13.894 2°55.594 -999 -999 -999 -999 -999
2008-05-05 09:19:50 51°13.887 2°55.598 -999 -999 -999 -999 -999
2008-05-05 09:19:55 51°13.88 2°55.603 -999 -999 -999 -999 -999
2008-05-05 09:20:00 51°13.873 2°55.608 -999 -999 -999 -999 -999
2008-05-05 09:20:05 51°13.866 2°55.613 -999 -999 -999 -999 -999
2008-05-05 09:20:10 51°13.859 2°55.617 -999 -999 -999 -999 -999
2008-05-05 09:20:15 51°13.852 2°55.622 -999 -999 -999 -999 -999
2008-05-05 09:20:19 51°13.847 2°55.626 -999 -999 -999 -999 -999
2008-05-05 09:20:24 51°13.84 2°55.631 -999 -999 -999 -999 -999
2008-05-05 09:20:30 51°13.832 2°55.637 -999 -999 -999 -999 -999
2008-05-05 09:20:35 51°13.825 2°55.642 -999 -999 -999 -999 -999
2008-05-05 09:20:40 51°13.818 2°55.647 -999 -999 -999 -999 -999
2008-05-05 09:20:45 51°13.812 2°55.651 -999 -999 -999 -999 -999
2008-05-05 09:20:50 51°13.805 2°55.656 -999 -999 -999 -999 -999
2008-05-05 09:20:55 51°13.799 2°55.66 -999 -999 -999 -999 -999
2008-05-05 09:21:00 51°13.794 2°55.665 -999 -999 -999 -999 -999
2008-05-05 09:21:05 51°13.788 2°55.67 -999 -999 -999 -999 -999
2008-05-05 09:21:10 51°13.783 2°55.675 -999 -999 -999 -999 -999
2008-05-05 09:21:15 51°13.778 2°55.68 -999 -999 -999 -999 -999
2008-05-05 09:21:20 51°13.773 2°55.686 -999 -999 -999 -999 -999
2008-05-05 09:21:25 51°13.769 2°55.692 -999 -999 -999 -999 -999
2008-05-05 09:21:30 51°13.764 2°55.697 -999 -999 -999 -999 -999
2008-05-05 09:21:35 51°13.761 2°55.703 -999 -999 -999 -999 -999
2008-05-05 09:21:40 51°13.757 2°55.71 -999 -999 -999 -999 -999
2008-05-05 09:21:45 51°13.754 2°55.716 -999 -999 -999 -999 -999
2008-05-05 09:21:50 51°13.75 2°55.722 -999 -999 -999 -999 -999
2008-05-05 09:21:55 51°13.747 2°55.729 -999 -999 -999 -999 -999
2008-05-05 09:22:00 51°13.745 2°55.736 -999 -999 -999 -999 -999
2008-05-05 09:22:05 51°13.742 2°55.742 -999 -999 -999 -999 -999
2008-05-05 09:22:10 51°13.739 2°55.749 -999 -999 -999 -999 -999
2008-05-05 09:22:15 51°13.736 2°55.756 -999 -999 -999 -999 -999
2008-05-05 09:22:20 51°13.733 2°55.762 -999 -999 -999 -999 -999
2008-05-05 09:22:25 51°13.73 2°55.769 -999 -999 -999 -999 -999
2008-05-05 09:22:30 51°13.727 2°55.775 -999 -999 -999 -999 -999
2008-05-05 09:22:35 51°13.725 2°55.782 -999 -999 -999 -999 -999
2008-05-05 09:22:40 51°13.722 2°55.789 -999 -999 -999 -999 -999
2008-05-05 09:22:45 51°13.719 2°55.795 -999 -999 -999 -999 -999
2008-05-05 09:22:50 51°13.717 2°55.802 -999 -999 -999 -999 -999
2008-05-05 09:22:55 51°13.714 2°55.809 -999 -999 -999 -999 -999
2008-05-05 09:22:59 51°13.713 2°55.815 -999 -999 -999 -999 -999
2008-05-05 09:23:05 51°13.71 2°55.823 -999 -999 -999 -999 -999
2008-05-05 09:23:10 51°13.708 2°55.83 -999 -999 -999 -999 -999
2008-05-05 09:23:15 51°13.706 2°55.837 -999 -999 -999 -999 -999
2008-05-05 09:23:20 51°13.703 2°55.845 -999 -999 -999 -999 -999
2008-05-05 09:23:24 51°13.702 2°55.85 -999 -999 -999 -999 -999
2008-05-05 09:23:30 51°13.699 2°55.859 -999 -999 -999 -999 -999
2008-05-05 09:23:35 51°13.697 2°55.866 -999 -999 -999 -999 -999
2008-05-05 09:23:40 51°13.695 2°55.873 -999 -999 -999 -999 -999
2008-05-05 09:23:45 51°13.693 2°55.88 -999 -999 -999 -999 -999
2008-05-05 09:23:50 51°13.691 2°55.886 -999 -999 -999 -999 -999
2008-05-05 09:23:55 51°13.689 2°55.893 -999 -999 -999 -999 -999
2008-05-05 09:24:00 51°13.687 2°55.899 -999 -999 -999 -999 -999
2008-05-05 09:24:05 51°13.685 2°55.904 -999 -999 -999 -999 -999
2008-05-05 09:24:10 51°13.683 2°55.91 -999 -999 -999 -999 -999
2008-05-05 09:24:15 51°13.681 2°55.916 -999 -999 -999 -999 -999
2008-05-05 09:24:20 51°13.679 2°55.921 -999 -999 -999 -999 -999
2008-05-05 09:24:25 51°13.677 2°55.926 -999 -999 -999 -999 -999
2008-05-05 09:24:30 51°13.676 2°55.931 -999 -999 -999 -999 -999
2008-05-05 09:24:35 51°13.675 2°55.934 -999 -999 -999 -999 -999
2008-05-05 09:24:40 51°13.673 2°55.938 -999 -999 -999 -999 -999
2008-05-05 09:24:45 51°13.672 2°55.941 -999 -999 -999 -999 -999
2008-05-05 09:24:50 51°13.672 2°55.943 -999 -999 -999 -999 -999
2008-05-05 09:24:55 51°13.671 2°55.945 -999 -999 -999 -999 -999
2008-05-05 09:24:59 51°13.671 2°55.946 -999 -999 -999 -999 -999
2008-05-05 09:25:04 51°13.67 2°55.947 -999 -999 -999 -999 -999
2008-05-05 09:25:10 51°13.669 2°55.949 -999 -999 -999 -999 -999
2008-05-05 09:25:15 51°13.668 2°55.95 -999 -999 -999 -999 -999
2008-05-05 09:25:20 51°13.668 2°55.951 -999 -999 -999 -999 -999
2008-05-05 09:25:24 51°13.667 2°55.952 -999 -999 -999 -999 -999
2008-05-05 09:25:30 51°13.667 2°55.953 -999 -999 -999 -999 -999
2008-05-05 09:25:35 51°13.666 2°55.953 -999 -999 -999 -999 -999
2008-05-05 09:25:40 51°13.666 2°55.954 -999 -999 -999 -999 -999
2008-05-05 09:25:45 51°13.665 2°55.955 -999 -999 -999 -999 -999
2008-05-05 09:25:50 51°13.666 2°55.955 -999 -999 -999 -999 -999
2008-05-05 09:25:55 51°13.666 2°55.955 -999 -999 -999 -999 -999
2008-05-05 09:26:00 51°13.666 2°55.955 -999 -999 -999 -999 -999
2008-05-05 09:26:05 51°13.666 2°55.954 -999 -999 -999 -999 -999
2008-05-05 09:26:10 51°13.666 2°55.955 -999 -999 -999 -999 -999
2008-05-05 09:26:15 51°13.666 2°55.955 -999 -999 -999 -999 -999
2008-05-05 09:26:20 51°13.666 2°55.955 -999 -999 -999 -999 -999
2008-05-05 09:26:25 51°13.666 2°55.955 -999 -999 -999 -999 -999
2008-05-05 09:26:30 51°13.666 2°55.955 -999 -999 -999 -999 -999
2008-05-05 09:26:35 51°13.666 2°55.955 -999 -999 -999 -999 -999
2008-05-05 09:26:40 51°13.666 2°55.955 -999 -999 -999 -999 -999
2008-05-05 09:26:45 51°13.666 2°55.955 -999 -999 -999 -999 -999
2008-05-05 09:26:50 51°13.666 2°55.955 -999 -999 -999 -999 -999
2008-05-05 09:26:55 51°13.666 2°55.955 -999 -999 -999 -999 -999
2008-05-05 09:27:00 51°13.667 2°55.955 -999 -999 -999 -999 -999
2008-05-05 09:27:05 51°13.667 2°55.955 -999 -999 -999 -999 -999
2008-05-05 09:27:10 51°13.667 2°55.955 -999 -999 -999 -999 -999
2008-05-05 09:27:15 51°13.667 2°55.955 -999 -999 -999 -999 -999
2008-05-05 09:27:19 51°13.667 2°55.955 -999 -999 -999 -999 -999
2008-05-05 09:27:25 51°13.667 2°55.955 -999 -999 -999 -999 -999
2008-05-05 09:27:30 51°13.667 2°55.955 -999 -999 -999 -999 -999
2008-05-05 09:27:35 51°13.667 2°55.955 -999 -999 -999 -999 -999
2008-05-05 09:27:40 51°13.667 2°55.955 -999 -999 -999 -999 -999
2008-05-05 09:27:44 51°13.667 2°55.955 -999 -999 -999 -999 -999
2008-05-05 09:27:50 51°13.667 2°55.954 -999 -999 -999 -999 -999
2008-05-05 09:27:55 51°13.667 2°55.955 -999 -999 -999 -999 -999
2008-05-05 09:28:00 51°13.667 2°55.955 -999 -999 -999 -999 -999
2008-05-05 09:28:05 51°13.667 2°55.955 -999 -999 -999 -999 -999
2008-05-05 09:28:10 51°13.667 2°55.955 -999 -999 -999 -999 -999
2008-05-05 09:28:15 51°13.667 2°55.955 -999 -999 -999 -999 -999
2008-05-05 09:28:20 51°13.667 2°55.955 -999 -999 -999 -999 -999
2008-05-05 09:28:25 51°13.667 2°55.955 -999 -999 -999 -999 -999
2008-05-05 09:28:30 51°13.667 2°55.955 -999 -999 -999 -999 -999
2008-05-05 09:28:35 51°13.667 2°55.955 -999 -999 -999 -999 -999
2008-05-05 09:28:40 51°13.667 2°55.955 -999 -999 -999 -999 -999
2008-05-05 09:28:45 51°13.667 2°55.955 -999 -999 -999 -999 -999
2008-05-05 09:28:50 51°13.667 2°55.955 -999 -999 -999 -999 -999
2008-05-05 09:28:55 51°13.668 2°55.955 -999 -999 -999 -999 -999
2008-05-05 09:29:00 51°13.668 2°55.955 -999 -999 -999 -999 -999
2008-05-05 09:29:05 51°13.668 2°55.955 -999 -999 -999 -999 -999
2008-05-05 09:29:10 51°13.668 2°55.955 -999 -999 -999 -999 -999
2008-05-05 09:29:15 51°13.668 2°55.955 -999 -999 -999 -999 -999
2008-05-05 09:29:20 51°13.668 2°55.955 -999 -999 -999 -999 -999
2008-05-05 09:29:25 51°13.668 2°55.955 -999 -999 -999 -999 -999
2008-05-05 09:29:30 51°13.668 2°55.956 -999 -999 -999 -999 -999
2008-05-05 09:29:35 51°13.668 2°55.956 -999 -999 -999 -999 -999
2008-05-05 09:29:40 51°13.668 2°55.955 -999 -999 -999 -999 -999
2008-05-05 09:29:45 51°13.668 2°55.956 -999 -999 -999 -999 -999
2008-05-05 09:29:50 51°13.668 2°55.956 -999 -999 -999 -999 -999
2008-05-05 09:29:55 51°13.668 2°55.956 -999 -999 -999 -999 -999
2008-05-05 09:30:00 51°13.668 2°55.955 -999 -999 -999 -999 -999
2008-05-05 09:30:05 51°13.668 2°55.955 -999 -999 -999 -999 -999
2008-05-05 09:30:10 51°13.668 2°55.955 -999 -999 -999 -999 -999
2008-05-05 09:30:15 51°13.668 2°55.955 -999 -999 -999 -999 -999
2008-05-05 09:30:20 51°13.668 2°55.955 -999 -999 -999 -999 -999
2008-05-05 09:30:25 51°13.668 2°55.955 -999 -999 -999 -999 -999
2008-05-05 09:30:30 51°13.668 2°55.955 -999 -999 -999 -999 -999
2008-05-05 09:30:35 51°13.668 2°55.955 -999 -999 -999 -999 -999
2008-05-05 09:30:40 51°13.668 2°55.955 -999 -999 -999 -999 -999
2008-05-05 09:30:45 51°13.668 2°55.955 -999 -999 -999 -999 -999
2008-05-05 09:30:50 51°13.668 2°55.955 -999 -999 -999 -999 -999
2008-05-05 09:30:55 51°13.668 2°55.955 -999 -999 -999 -999 -999
2008-05-05 09:31:00 51°13.668 2°55.955 -999 -999 -999 -999 -999
2008-05-05 09:31:05 51°13.668 2°55.955 -999 -999 -999 -999 -999
2008-05-05 09:31:10 51°13.668 2°55.955 -999 -999 -999 -999 -999
2008-05-05 09:31:15 51°13.667 2°55.955 -999 -999 -999 -999 -999
2008-05-05 09:31:19 51°13.667 2°55.955 -999 -999 -999 -999 -999
2008-05-05 09:31:25 51°13.667 2°55.955 -999 -999 -999 -999 -999
2008-05-05 09:31:30 51°13.667 2°55.955 -999 -999 -999 -999 -999
2008-05-05 09:31:35 51°13.667 2°55.955 -999 -999 -999 -999 -999
2008-05-05 09:31:39 51°13.667 2°55.955 -999 -999 -999 -999 -999
2008-05-05 09:31:45 51°13.667 2°55.955 -999 -999 -999 -999 -999
2008-05-05 09:31:50 51°13.667 2°55.955 -999 -999 -999 -999 -999
2008-05-05 09:31:55 51°13.667 2°55.955 -999 -999 -999 -999 -999
2008-05-05 09:32:00 51°13.667 2°55.955 -999 -999 -999 -999 -999
2008-05-05 09:32:05 51°13.667 2°55.955 -999 -999 -999 -999 -999
2008-05-05 09:32:10 51°13.667 2°55.955 -999 -999 -999 -999 -999
2008-05-05 09:32:15 51°13.667 2°55.955 -999 -999 -999 -999 -999
2008-05-05 09:32:20 51°13.666 2°55.955 -999 -999 -999 -999 -999
2008-05-05 09:32:25 51°13.666 2°55.955 -999 -999 -999 -999 -999
2008-05-05 09:32:30 51°13.666 2°55.955 -999 -999 -999 -999 -999
2008-05-05 09:32:35 51°13.666 2°55.955 -999 -999 -999 -999 -999
2008-05-05 09:32:40 51°13.667 2°55.955 -999 -999 -999 -999 -999
2008-05-05 09:32:44 51°13.667 2°55.955 -999 -999 -999 -999 -999
2008-05-05 09:32:50 51°13.667 2°55.955 -999 -999 -999 -999 -999
2008-05-05 09:32:55 51°13.667 2°55.955 -999 -999 -999 -999 -999
2008-05-05 09:33:00 51°13.667 2°55.955 -999 -999 -999 -999 -999
2008-05-05 09:33:05 51°13.667 2°55.955 -999 -999 -999 -999 -999
2008-05-05 09:33:10 51°13.667 2°55.955 -999 -999 -999 -999 -999
2008-05-05 09:33:15 51°13.667 2°55.955 -999 -999 -999 -999 -999
2008-05-05 09:33:20 51°13.667 2°55.955 -999 -999 -999 -999 -999
2008-05-05 09:33:25 51°13.667 2°55.955 -999 -999 -999 -999 -999
2008-05-05 09:33:30 51°13.667 2°55.955 -999 -999 -999 -999 -999
2008-05-05 09:33:35 51°13.667 2°55.955 -999 -999 -999 -999 -999
2008-05-05 09:33:40 51°13.667 2°55.955 -999 -999 -999 -999 -999
2008-05-05 09:33:45 51°13.667 2°55.955 -999 -999 -999 -999 -999
2008-05-05 09:33:50 51°13.667 2°55.955 -999 -999 -999 -999 -999
2008-05-05 09:33:55 51°13.667 2°55.955 -999 -999 -999 -999 -999
2008-05-05 09:34:00 51°13.667 2°55.955 -999 -999 -999 -999 -999
2008-05-05 09:34:05 51°13.667 2°55.955 -999 -999 -999 -999 -999
2008-05-05 09:34:10 51°13.667 2°55.955 -999 -999 -999 -999 -999
2008-05-05 09:34:15 51°13.667 2°55.955 -999 -999 -999 -999 -999
2008-05-05 09:34:20 51°13.666 2°55.955 -999 -999 -999 -999 -999
2008-05-05 09:34:25 51°13.666 2°55.955 -999 -999 -999 -999 -999
2008-05-05 09:34:30 51°13.666 2°55.955 -999 -999 -999 -999 -999
2008-05-05 09:34:35 51°13.666 2°55.955 -999 -999 -999 -999 -999
2008-05-05 09:34:40 51°13.667 2°55.956 -999 -999 -999 -999 -999
2008-05-05 09:34:45 51°13.666 2°55.955 -999 -999 -999 -999 -999
2008-05-05 09:34:50 51°13.666 2°55.955 -999 -999 -999 -999 -999
2008-05-05 09:34:55 51°13.666 2°55.955 -999 -999 -999 -999 -999
2008-05-05 09:35:00 51°13.666 2°55.955 -999 -999 -999 -999 -999
2008-05-05 09:35:05 51°13.666 2°55.955 -999 -999 -999 -999 -999
2008-05-05 09:35:10 51°13.666 2°55.955 -999 -999 -999 -999 -999
2008-05-05 09:35:15 51°13.666 2°55.956 -999 -999 -999 -999 -999
2008-05-05 09:35:20 51°13.666 2°55.956 -999 -999 -999 -999 -999
2008-05-05 09:35:25 51°13.666 2°55.956 -999 -999 -999 -999 -999
2008-05-05 09:35:30 51°13.666 2°55.956 -999 -999 -999 -999 -999
2008-05-05 09:35:35 51°13.666 2°55.956 -999 -999 -999 -999 -999
2008-05-05 09:35:40 51°13.666 2°55.956 -999 -999 -999 -999 -999
2008-05-05 09:35:45 51°13.666 2°55.956 -999 -999 -999 -999 -999
2008-05-05 09:35:50 51°13.667 2°55.956 -999 -999 -999 -999 -999
2008-05-05 09:35:55 51°13.667 2°55.956 -999 -999 -999 -999 -999
2008-05-05 09:36:00 51°13.667 2°55.956 -999 -999 -999 -999 -999
2008-05-05 09:36:05 51°13.667 2°55.956 -999 -999 -999 -999 -999
2008-05-05 09:36:10 51°13.667 2°55.956 -999 -999 -999 -999 -999
2008-05-05 09:36:15 51°13.666 2°55.956 -999 -999 -999 -999 -999
2008-05-05 09:36:20 51°13.666 2°55.955 -999 -999 -999 -999 -999
2008-05-05 09:36:25 51°13.666 2°55.955 -999 -999 -999 -999 -999
2008-05-05 09:36:30 51°13.666 2°55.955 -999 -999 -999 -999 -999
2008-05-05 09:36:35 51°13.666 2°55.955 -999 -999 -999 -999 -999
2008-05-05 09:36:40 51°13.666 2°55.955 -999 -999 -999 -999 -999
2008-05-05 09:36:45 51°13.665 2°55.955 -999 -999 -999 -999 -999
2008-05-05 09:36:50 51°13.665 2°55.955 -999 -999 -999 -999 -999
2008-05-05 09:36:55 51°13.665 2°55.955 -999 -999 -999 -999 -999
2008-05-05 09:37:00 51°13.666 2°55.955 -999 -999 -999 -999 -999
2008-05-05 09:37:05 51°13.666 2°55.955 -999 -999 -999 -999 -999
2008-05-05 09:37:10 51°13.666 2°55.955 -999 -999 -999 -999 -999
2008-05-05 09:37:15 51°13.666 2°55.955 -999 -999 -999 -999 -999
2008-05-05 09:37:20 51°13.665 2°55.955 -999 -999 -999 -999 -999
2008-05-05 09:37:25 51°13.665 2°55.955 -999 -999 -999 -999 -999
2008-05-05 09:37:30 51°13.665 2°55.955 -999 -999 -999 -999 -999
2008-05-05 09:37:35 51°13.665 2°55.955 -999 -999 -999 -999 -999
2008-05-05 09:37:40 51°13.665 2°55.955 -999 -999 -999 -999 -999
2008-05-05 09:37:45 51°13.665 2°55.954 -999 -999 -999 -999 -999
2008-05-05 09:37:50 51°13.665 2°55.954 -999 -999 -999 -999 -999
2008-05-05 09:37:55 51°13.665 2°55.954 -999 -999 -999 -999 -999
2008-05-05 09:38:00 51°13.665 2°55.954 -999 -999 -999 -999 -999
2008-05-05 09:38:05 51°13.665 2°55.954 -999 -999 -999 -999 -999
2008-05-05 09:38:10 51°13.665 2°55.954 -999 -999 -999 -999 -999
2008-05-05 09:38:15 51°13.665 2°55.954 -999 -999 -999 -999 -999
2008-05-05 09:38:20 51°13.665 2°55.954 -999 -999 -999 -999 -999
2008-05-05 09:38:25 51°13.665 2°55.954 -999 -999 -999 -999 -999
2008-05-05 09:38:30 51°13.665 2°55.954 -999 -999 -999 -999 -999
2008-05-05 09:38:35 51°13.665 2°55.954 -999 -999 -999 -999 -999
2008-05-05 09:38:40 51°13.665 2°55.954 -999 -999 -999 -999 -999
2008-05-05 09:38:44 51°13.665 2°55.954 -999 -999 -999 -999 -999
2008-05-05 09:38:50 51°13.665 2°55.954 -999 -999 -999 -999 -999
2008-05-05 09:38:55 51°13.665 2°55.955 -999 -999 -999 -999 -999
2008-05-05 09:39:00 51°13.665 2°55.955 -999 -999 -999 -999 -999
2008-05-05 09:39:04 51°13.666 2°55.955 -999 -999 -999 -999 -999
2008-05-05 09:39:10 51°13.666 2°55.954 -999 -999 -999 -999 -999
2008-05-05 09:39:15 51°13.666 2°55.955 -999 -999 -999 -999 -999
2008-05-05 09:39:20 51°13.666 2°55.955 -999 -999 -999 -999 -999
2008-05-05 09:39:25 51°13.666 2°55.955 -999 -999 -999 -999 -999
2008-05-05 09:39:30 51°13.666 2°55.955 -999 -999 -999 -999 -999
2008-05-05 09:39:35 51°13.666 2°55.954 -999 -999 -999 -999 -999
2008-05-05 09:39:40 51°13.666 2°55.955 -999 -999 -999 -999 -999
2008-05-05 09:39:45 51°13.666 2°55.954 -999 -999 -999 -999 -999
2008-05-05 09:39:50 51°13.667 2°55.954 -999 -999 -999 -999 -999
2008-05-05 09:39:55 51°13.667 2°55.955 -999 -999 -999 -999 -999
2008-05-05 09:40:00 51°13.667 2°55.955 -999 -999 -999 -999 -999
2008-05-05 09:40:05 51°13.667 2°55.954 -999 -999 -999 -999 -999
2008-05-05 09:40:10 51°13.667 2°55.955 -999 -999 -999 -999 -999
2008-05-05 09:40:15 51°13.667 2°55.955 -999 -999 -999 -999 -999
2008-05-05 09:40:19 51°13.667 2°55.955 -999 -999 -999 -999 -999
2008-05-05 09:40:25 51°13.667 2°55.955 -999 -999 -999 -999 -999
2008-05-05 09:40:30 51°13.667 2°55.955 -999 -999 -999 -999 -999
2008-05-05 09:40:35 51°13.667 2°55.955 -999 -999 -999 -999 -999
2008-05-05 09:40:40 51°13.667 2°55.955 -999 -999 -999 -999 -999
2008-05-05 09:40:45 51°13.667 2°55.955 -999 -999 -999 -999 -999
2008-05-05 09:40:50 51°13.667 2°55.955 -999 -999 -999 -999 -999
2008-05-05 09:40:55 51°13.667 2°55.955 -999 -999 -999 -999 -999
2008-05-05 09:41:00 51°13.667 2°55.955 -999 -999 -999 -999 -999
2008-05-05 09:41:04 51°13.667 2°55.955 -999 -999 -999 -999 -999
2008-05-05 09:41:10 51°13.667 2°55.955 -999 -999 -999 -999 -999
2008-05-05 09:41:15 51°13.667 2°55.955 -999 -999 -999 -999 -999
2008-05-05 09:41:20 51°13.667 2°55.955 -999 -999 -999 -999 -999
2008-05-05 09:41:25 51°13.667 2°55.955 -999 -999 -999 -999 -999
2008-05-05 09:41:30 51°13.667 2°55.955 -999 -999 -999 -999 -999
2008-05-05 09:41:35 51°13.667 2°55.955 -999 -999 -999 -999 -999
2008-05-05 09:41:40 51°13.667 2°55.955 -999 -999 -999 -999 -999
2008-05-05 09:41:45 51°13.667 2°55.955 -999 -999 -999 -999 -999
2008-05-05 09:41:50 51°13.666 2°55.955 -999 -999 -999 -999 -999
2008-05-05 09:41:55 51°13.666 2°55.955 -999 -999 -999 -999 -999
2008-05-05 09:42:00 51°13.666 2°55.955 -999 -999 -999 -999 -999
2008-05-05 09:42:05 51°13.666 2°55.955 -999 -999 -999 -999 -999
2008-05-05 09:42:10 51°13.666 2°55.955 -999 -999 -999 -999 -999
2008-05-05 09:42:15 51°13.666 2°55.955 -999 -999 -999 -999 -999
2008-05-05 09:42:20 51°13.666 2°55.955 -999 -999 -999 -999 -999
2008-05-05 09:42:25 51°13.667 2°55.955 -999 -999 -999 -999 -999
2008-05-05 09:42:30 51°13.667 2°55.955 -999 -999 -999 -999 -999
2008-05-05 09:42:35 51°13.667 2°55.955 -999 -999 -999 -999 -999
2008-05-05 09:42:39 51°13.667 2°55.955 -999 -999 -999 -999 -999
2008-05-05 09:42:45 51°13.667 2°55.955 -999 -999 -999 -999 -999
2008-05-05 09:42:50 51°13.667 2°55.955 -999 -999 -999 -999 -999
2008-05-05 09:42:55 51°13.667 2°55.955 -999 -999 -999 -999 -999
2008-05-05 09:43:00 51°13.667 2°55.955 -999 -999 -999 -999 -999
2008-05-05 09:43:05 51°13.667 2°55.955 -999 -999 -999 -999 -999
2008-05-05 09:43:10 51°13.667 2°55.955 -999 -999 -999 -999 -999
2008-05-05 09:43:15 51°13.667 2°55.955 -999 -999 -999 -999 -999
2008-05-05 09:43:20 51°13.667 2°55.955 -999 -999 -999 -999 -999
2008-05-05 09:43:24 51°13.667 2°55.955 -999 -999 -999 -999 -999
2008-05-05 09:43:30 51°13.667 2°55.955 -999 -999 -999 -999 -999
2008-05-05 09:43:35 51°13.667 2°55.955 -999 -999 -999 -999 -999
2008-05-05 09:43:40 51°13.667 2°55.955 -999 -999 -999 -999 -999
2008-05-05 09:43:45 51°13.667 2°55.955 -999 -999 -999 -999 -999
2008-05-05 09:43:50 51°13.667 2°55.955 -999 -999 -999 -999 -999
2008-05-05 09:43:55 51°13.666 2°55.955 -999 -999 -999 -999 -999
2008-05-05 09:44:00 51°13.666 2°55.955 -999 -999 -999 -999 -999
2008-05-05 09:44:05 51°13.666 2°55.955 -999 -999 -999 -999 -999
2008-05-05 09:44:10 51°13.666 2°55.955 -999 -999 -999 -999 -999
2008-05-05 09:44:15 51°13.666 2°55.955 -999 -999 -999 -999 -999
2008-05-05 09:44:20 51°13.666 2°55.955 -999 -999 -999 -999 -999
2008-05-05 09:44:25 51°13.666 2°55.955 -999 -999 -999 -999 -999
2008-05-05 09:44:30 51°13.666 2°55.954 -999 -999 -999 -999 -999
2008-05-05 09:44:35 51°13.666 2°55.954 -999 -999 -999 -999 -999
2008-05-05 09:44:40 51°13.666 2°55.954 -999 -999 -999 -999 -999
2008-05-05 09:44:45 51°13.666 2°55.954 -999 -999 -999 -999 -999
2008-05-05 09:44:50 51°13.666 2°55.954 -999 -999 -999 -999 -999
2008-05-05 09:44:55 51°13.666 2°55.954 -999 -999 -999 -999 -999
2008-05-05 09:45:00 51°13.666 2°55.954 -999 -999 -999 -999 -999
2008-05-05 09:45:05 51°13.666 2°55.954 -999 -999 -999 -999 -999
2008-05-05 09:45:10 51°13.666 2°55.954 -999 -999 -999 -999 -999
2008-05-05 09:45:15 51°13.666 2°55.954 -999 -999 -999 -999 -999
2008-05-05 09:45:19 51°13.666 2°55.954 -999 -999 -999 -999 -999
2008-05-05 09:45:25 51°13.666 2°55.954 -999 -999 -999 -999 -999
2008-05-05 09:45:30 51°13.666 2°55.954 -999 -999 -999 -999 -999
2008-05-05 09:45:35 51°13.666 2°55.954 -999 -999 -999 -999 -999
2008-05-05 09:45:40 51°13.667 2°55.954 -999 -999 -999 -999 -999
2008-05-05 09:45:45 51°13.667 2°55.954 -999 -999 -999 -999 -999
2008-05-05 09:45:50 51°13.666 2°55.954 -999 -999 -999 -999 -999
2008-05-05 09:45:55 51°13.666 2°55.954 -999 -999 -999 -999 -999
2008-05-05 09:46:00 51°13.666 2°55.954 -999 -999 -999 -999 -999
2008-05-05 09:46:05 51°13.666 2°55.954 -999 -999 -999 -999 -999
2008-05-05 09:46:10 51°13.666 2°55.954 -999 -999 -999 -999 -999
2008-05-05 09:46:15 51°13.666 2°55.954 -999 -999 -999 -999 -999
2008-05-05 09:46:20 51°13.666 2°55.954 -999 -999 -999 -999 -999
2008-05-05 09:46:25 51°13.667 2°55.954 -999 -999 -999 -999 -999
2008-05-05 09:46:30 51°13.667 2°55.954 -999 -999 -999 -999 -999
2008-05-05 09:46:35 51°13.666 2°55.954 -999 -999 -999 -999 -999
2008-05-05 09:46:40 51°13.666 2°55.954 -999 -999 -999 -999 -999
2008-05-05 09:46:45 51°13.667 2°55.954 -999 -999 -999 -999 -999
2008-05-05 09:46:50 51°13.666 2°55.954 -999 -999 -999 -999 -999
2008-05-05 09:46:55 51°13.666 2°55.954 -999 -999 -999 -999 -999
2008-05-05 09:47:00 51°13.666 2°55.954 -999 -999 -999 -999 -999
2008-05-05 09:47:05 51°13.666 2°55.954 -999 -999 -999 -999 -999
2008-05-05 09:47:10 51°13.666 2°55.954 -999 -999 -999 -999 -999
2008-05-05 09:47:15 51°13.666 2°55.954 -999 -999 -999 -999 -999
2008-05-05 09:47:20 51°13.666 2°55.954 -999 -999 -999 -999 -999
2008-05-05 09:47:25 51°13.666 2°55.954 -999 -999 -999 -999 -999
2008-05-05 09:47:30 51°13.666 2°55.954 -999 -999 -999 -999 -999
2008-05-05 09:47:35 51°13.666 2°55.954 -999 -999 -999 -999 -999
2008-05-05 09:47:40 51°13.666 2°55.954 -999 -999 -999 -999 -999
2008-05-05 09:47:45 51°13.666 2°55.954 -999 -999 -999 -999 -999
2008-05-05 09:47:50 51°13.666 2°55.954 -999 -999 -999 -999 -999
2008-05-05 09:47:55 51°13.666 2°55.954 -999 -999 -999 -999 -999
2008-05-05 09:48:00 51°13.666 2°55.954 -999 -999 -999 -999 -999
2008-05-05 09:48:04 51°13.666 2°55.954 -999 -999 -999 -999 -999
2008-05-05 09:48:10 51°13.666 2°55.954 -999 -999 -999 -999 -999
2008-05-05 09:48:15 51°13.666 2°55.954 -999 -999 -999 -999 -999
2008-05-05 09:48:20 51°13.666 2°55.954 -999 -999 -999 -999 -999
2008-05-05 09:48:25 51°13.666 2°55.954 -999 -999 -999 -999 -999
2008-05-05 09:48:30 51°13.666 2°55.954 -999 -999 -999 -999 -999
2008-05-05 09:48:35 51°13.666 2°55.954 -999 -999 -999 -999 -999
2008-05-05 09:48:40 51°13.666 2°55.954 -999 -999 -999 -999 -999
2008-05-05 09:48:45 51°13.666 2°55.954 -999 -999 -999 -999 -999
2008-05-05 09:48:50 51°13.666 2°55.954 -999 -999 -999 -999 -999
2008-05-05 09:48:55 51°13.666 2°55.953 -999 -999 -999 -999 -999
2008-05-05 09:49:00 51°13.666 2°55.953 -999 -999 -999 -999 -999
2008-05-05 09:49:05 51°13.666 2°55.953 -999 -999 -999 -999 -999
2008-05-05 09:49:10 51°13.666 2°55.953 -999 -999 -999 -999 -999
2008-05-05 09:49:15 51°13.666 2°55.953 -999 -999 -999 -999 -999
2008-05-05 09:49:20 51°13.666 2°55.953 -999 -999 -999 -999 -999
2008-05-05 09:49:25 51°13.666 2°55.953 -999 -999 -999 -999 -999
2008-05-05 09:49:30 51°13.666 2°55.953 -999 -999 -999 -999 -999
2008-05-05 09:49:35 51°13.666 2°55.953 -999 -999 -999 -999 -999
2008-05-05 09:49:40 51°13.666 2°55.953 -999 -999 -999 -999 -999
2008-05-05 09:49:45 51°13.666 2°55.953 -999 -999 -999 -999 -999
2008-05-05 09:49:50 51°13.666 2°55.953 -999 -999 -999 -999 -999
2008-05-05 09:49:55 51°13.666 2°55.953 -999 -999 -999 -999 -999
2008-05-05 09:50:00 51°13.666 2°55.953 -999 -999 -999 -999 -999
2008-05-05 09:50:05 51°13.666 2°55.953 -999 -999 -999 -999 -999
2008-05-05 09:50:10 51°13.666 2°55.953 -999 -999 -999 -999 -999
2008-05-05 09:50:15 51°13.666 2°55.953 -999 -999 -999 -999 -999
2008-05-05 09:50:20 51°13.666 2°55.954 -999 -999 -999 -999 -999
2008-05-05 09:50:25 51°13.666 2°55.954 -999 -999 -999 -999 -999
2008-05-05 09:50:30 51°13.666 2°55.954 -999 -999 -999 -999 -999
2008-05-05 09:50:35 51°13.666 2°55.954 -999 -999 -999 -999 -999
2008-05-05 09:50:40 51°13.666 2°55.954 -999 -999 -999 -999 -999
2008-05-05 09:50:45 51°13.666 2°55.954 -999 -999 -999 -999 -999
2008-05-05 09:50:50 51°13.666 2°55.954 -999 -999 -999 -999 -999
2008-05-05 09:50:55 51°13.666 2°55.954 -999 -999 -999 -999 -999
2008-05-05 09:51:00 51°13.666 2°55.953 -999 -999 -999 -999 -999
2008-05-05 09:51:05 51°13.666 2°55.953 -999 -999 -999 -999 -999
2008-05-05 09:51:10 51°13.666 2°55.953 -999 -999 -999 -999 -999
2008-05-05 09:51:15 51°13.666 2°55.954 -999 -999 -999 -999 -999
2008-05-05 09:51:20 51°13.666 2°55.954 -999 -999 -999 -999 -999
2008-05-05 09:51:25 51°13.666 2°55.953 -999 -999 -999 -999 -999
2008-05-05 09:51:30 51°13.666 2°55.954 -999 -999 -999 -999 -999
2008-05-05 09:51:35 51°13.666 2°55.954 -999 -999 -999 -999 -999
2008-05-05 09:51:40 51°13.666 2°55.954 -999 -999 -999 -999 -999
2008-05-05 09:51:45 51°13.666 2°55.954 -999 -999 -999 -999 -999
2008-05-05 09:51:50 51°13.666 2°55.954 -999 -999 -999 -999 -999
2008-05-05 09:51:55 51°13.666 2°55.954 -999 -999 -999 -999 -999
2008-05-05 09:52:00 51°13.665 2°55.954 -999 -999 -999 -999 -999
2008-05-05 09:52:05 51°13.665 2°55.954 -999 -999 -999 -999 -999
2008-05-05 09:52:10 51°13.665 2°55.954 -999 -999 -999 -999 -999
2008-05-05 09:52:15 51°13.665 2°55.954 -999 -999 -999 -999 -999
2008-05-05 09:52:20 51°13.665 2°55.954 -999 -999 -999 -999 -999
2008-05-05 09:52:25 51°13.665 2°55.954 -999 -999 -999 -999 -999
2008-05-05 09:52:30 51°13.665 2°55.954 -999 -999 -999 -999 -999
2008-05-05 09:52:35 51°13.665 2°55.954 -999 -999 -999 -999 -999
2008-05-05 09:52:40 51°13.665 2°55.954 -999 -999 -999 -999 -999
2008-05-05 09:52:45 51°13.665 2°55.954 -999 -999 -999 -999 -999
2008-05-05 09:52:50 51°13.665 2°55.954 -999 -999 -999 -999 -999
2008-05-05 09:52:55 51°13.665 2°55.954 -999 -999 -999 -999 -999
2008-05-05 09:53:00 51°13.665 2°55.954 -999 -999 -999 -999 -999
2008-05-05 09:53:05 51°13.665 2°55.954 -999 -999 -999 -999 -999
2008-05-05 09:53:10 51°13.665 2°55.954 -999 -999 -999 -999 -999
2008-05-05 09:53:15 51°13.665 2°55.954 -999 -999 -999 -999 -999
2008-05-05 09:53:20 51°13.665 2°55.954 -999 -999 -999 -999 -999
2008-05-05 09:53:25 51°13.665 2°55.954 -999 -999 -999 -999 -999
2008-05-05 09:53:30 51°13.665 2°55.954 -999 -999 -999 -999 -999
2008-05-05 09:53:35 51°13.665 2°55.954 -999 -999 -999 -999 -999
2008-05-05 09:53:40 51°13.665 2°55.954 -999 -999 -999 -999 -999
2008-05-05 09:53:45 51°13.665 2°55.954 -999 -999 -999 -999 -999
2008-05-05 09:53:50 51°13.665 2°55.954 -999 -999 -999 -999 -999
2008-05-05 09:53:55 51°13.665 2°55.954 -999 -999 -999 -999 -999
2008-05-05 09:54:00 51°13.665 2°55.954 -999 -999 -999 -999 -999
2008-05-05 09:54:05 51°13.665 2°55.954 -999 -999 -999 -999 -999
2008-05-05 09:54:10 51°13.665 2°55.954 -999 -999 -999 -999 -999
2008-05-05 09:54:15 51°13.665 2°55.954 -999 -999 -999 -999 -999
2008-05-05 09:54:20 51°13.665 2°55.954 -999 -999 -999 -999 -999
2008-05-05 09:54:25 51°13.665 2°55.954 -999 -999 -999 -999 -999
2008-05-05 09:54:30 51°13.665 2°55.954 -999 -999 -999 -999 -999
2008-05-05 09:54:35 51°13.665 2°55.954 -999 -999 -999 -999 -999
2008-05-05 09:54:40 51°13.665 2°55.954 -999 -999 -999 -999 -999
2008-05-05 09:54:44 51°13.665 2°55.954 -999 -999 -999 -999 -999
2008-05-05 09:54:50 51°13.665 2°55.954 -999 -999 -999 -999 -999
2008-05-05 09:54:55 51°13.665 2°55.954 -999 -999 -999 -999 -999
2008-05-05 09:55:00 51°13.665 2°55.954 -999 -999 -999 -999 -999
2008-05-05 09:55:05 51°13.665 2°55.954 -999 -999 -999 -999 -999
2008-05-05 09:55:10 51°13.665 2°55.954 -999 -999 -999 -999 -999
2008-05-05 09:55:15 51°13.665 2°55.954 -999 -999 -999 -999 -999
2008-05-05 09:55:20 51°13.665 2°55.954 -999 -999 -999 -999 -999
2008-05-05 09:55:25 51°13.665 2°55.954 -999 -999 -999 -999 -999
2008-05-05 09:55:30 51°13.665 2°55.954 -999 -999 -999 -999 -999
2008-05-05 09:55:35 51°13.665 2°55.954 -999 -999 -999 -999 -999
2008-05-05 09:55:40 51°13.665 2°55.954 -999 -999 -999 -999 -999
2008-05-05 09:55:45 51°13.665 2°55.954 -999 -999 -999 -999 -999
2008-05-05 09:55:50 51°13.665 2°55.954 -999 -999 -999 -999 -999
2008-05-05 09:55:55 51°13.665 2°55.954 -999 -999 -999 -999 -999
2008-05-05 09:56:00 51°13.665 2°55.954 -999 -999 -999 -999 -999
2008-05-05 09:56:05 51°13.665 2°55.954 -999 -999 -999 -999 -999
2008-05-05 09:56:10 51°13.665 2°55.954 -999 -999 -999 -999 -999
2008-05-05 09:56:15 51°13.665 2°55.954 -999 -999 -999 -999 -999
2008-05-05 09:56:20 51°13.665 2°55.954 -999 -999 -999 -999 -999
2008-05-05 09:56:25 51°13.665 2°55.954 -999 -999 -999 -999 -999
2008-05-05 09:56:30 51°13.665 2°55.954 -999 -999 -999 -999 -999
2008-05-05 09:56:35 51°13.665 2°55.954 -999 -999 -999 -999 -999
2008-05-05 09:56:40 51°13.665 2°55.954 -999 -999 -999 -999 -999
2008-05-05 09:56:45 51°13.665 2°55.954 -999 -999 -999 -999 -999
2008-05-05 09:56:50 51°13.665 2°55.955 -999 -999 -999 -999 -999
2008-05-05 09:56:55 51°13.665 2°55.955 -999 -999 -999 -999 -999
2008-05-05 09:57:00 51°13.665 2°55.955 -999 -999 -999 -999 -999
2008-05-05 09:57:04 51°13.665 2°55.955 -999 -999 -999 -999 -999
2008-05-05 09:57:10 51°13.665 2°55.955 -999 -999 -999 -999 -999
2008-05-05 09:57:15 51°13.665 2°55.955 -999 -999 -999 -999 -999
2008-05-05 09:57:20 51°13.665 2°55.955 -999 -999 -999 -999 -999
2008-05-05 09:57:25 51°13.665 2°55.955 -999 -999 -999 -999 -999
2008-05-05 09:57:30 51°13.665 2°55.955 -999 -999 -999 -999 -999
2008-05-05 09:57:35 51°13.665 2°55.955 -999 -999 -999 -999 -999
2008-05-05 09:57:40 51°13.665 2°55.954 -999 -999 -999 -999 -999
2008-05-05 09:57:45 51°13.665 2°55.955 -999 -999 -999 -999 -999
2008-05-05 09:57:50 51°13.665 2°55.954 -999 -999 -999 -999 -999
2008-05-05 09:57:55 51°13.665 2°55.954 -999 -999 -999 -999 -999
2008-05-05 09:58:00 51°13.665 2°55.954 -999 -999 -999 -999 -999
2008-05-05 09:58:05 51°13.665 2°55.954 -999 -999 -999 -999 -999
2008-05-05 09:58:10 51°13.665 2°55.954 -999 -999 -999 -999 -999
2008-05-05 09:58:15 51°13.665 2°55.954 -999 -999 -999 -999 -999
2008-05-05 09:58:20 51°13.665 2°55.954 -999 -999 -999 -999 -999
2008-05-05 09:58:25 51°13.665 2°55.954 -999 -999 -999 -999 -999
2008-05-05 09:58:30 51°13.665 2°55.954 -999 -999 -999 -999 -999
2008-05-05 09:58:35 51°13.665 2°55.954 -999 -999 -999 -999 -999
2008-05-05 09:58:40 51°13.665 2°55.954 -999 -999 -999 -999 -999
2008-05-05 09:58:45 51°13.665 2°55.954 -999 -999 -999 -999 -999
2008-05-05 09:58:50 51°13.665 2°55.954 -999 -999 -999 -999 -999
2008-05-05 09:58:55 51°13.665 2°55.954 -999 -999 -999 -999 -999
2008-05-05 09:59:00 51°13.665 2°55.954 -999 -999 -999 -999 -999
2008-05-05 09:59:04 51°13.665 2°55.954 -999 -999 -999 -999 -999
2008-05-05 09:59:10 51°13.665 2°55.954 -999 -999 -999 -999 -999
2008-05-05 09:59:15 51°13.665 2°55.954 -999 -999 -999 -999 -999
2008-05-05 09:59:20 51°13.665 2°55.954 -999 -999 -999 -999 -999
2008-05-05 09:59:25 51°13.665 2°55.954 -999 -999 -999 -999 -999
2008-05-05 09:59:30 51°13.665 2°55.954 -999 -999 -999 -999 -999
2008-05-05 09:59:35 51°13.666 2°55.954 -999 -999 -999 -999 -999
2008-05-05 09:59:40 51°13.666 2°55.954 -999 -999 -999 -999 -999
2008-05-05 09:59:45 51°13.666 2°55.954 -999 -999 -999 -999 -999
2008-05-05 09:59:50 51°13.666 2°55.954 -999 -999 -999 -999 -999
2008-05-05 09:59:55 51°13.666 2°55.954 -999 -999 -999 -999 -999
2008-05-05 10:00:00 51°13.666 2°55.954 -999 -999 -999 -999 -999
2008-05-05 10:00:05 51°13.666 2°55.954 -999 -999 -999 -999 -999
2008-05-05 10:00:10 51°13.666 2°55.954 -999 -999 -999 -999 -999
2008-05-05 10:00:15 51°13.666 2°55.954 -999 -999 -999 -999 -999
2008-05-05 10:00:20 51°13.666 2°55.954 -999 -999 -999 -999 -999
2008-05-05 10:00:25 51°13.665 2°55.954 -999 -999 -999 -999 -999
2008-05-05 10:00:30 51°13.665 2°55.954 -999 -999 -999 -999 -999
2008-05-05 10:00:35 51°13.665 2°55.954 -999 -999 -999 -999 -999
2008-05-05 10:00:40 51°13.665 2°55.954 -999 -999 -999 -999 -999
2008-05-05 10:00:45 51°13.665 2°55.954 -999 -999 -999 -999 -999
2008-05-05 10:00:50 51°13.665 2°55.954 -999 -999 -999 -999 -999
2008-05-05 10:00:55 51°13.665 2°55.954 -999 -999 -999 -999 -999
2008-05-05 10:01:00 51°13.665 2°55.954 -999 -999 -999 -999 -999
2008-05-05 10:01:05 51°13.665 2°55.954 -999 -999 -999 -999 -999
2008-05-05 10:01:10 51°13.665 2°55.954 -999 -999 -999 -999 -999
2008-05-05 10:01:15 51°13.665 2°55.954 -999 -999 -999 -999 -999
2008-05-05 10:01:20 51°13.665 2°55.954 -999 -999 -999 -999 -999
2008-05-05 10:01:25 51°13.665 2°55.954 -999 -999 -999 -999 -999
2008-05-05 10:01:30 51°13.665 2°55.954 -999 -999 -999 -999 -999
2008-05-05 10:01:35 51°13.665 2°55.954 -999 -999 -999 -999 -999
2008-05-05 10:01:40 51°13.665 2°55.954 -999 -999 -999 -999 -999
2008-05-05 10:01:44 51°13.665 2°55.954 -999 -999 -999 -999 -999
2008-05-05 10:01:50 51°13.665 2°55.954 -999 -999 -999 -999 -999
2008-05-05 10:01:55 51°13.665 2°55.954 -999 -999 -999 -999 -999
2008-05-05 10:02:00 51°13.665 2°55.954 -999 -999 -999 -999 -999
2008-05-05 10:02:05 51°13.665 2°55.954 -999 -999 -999 -999 -999
2008-05-05 10:02:10 51°13.665 2°55.954 -999 -999 -999 -999 -999
2008-05-05 10:02:15 51°13.665 2°55.954 -999 -999 -999 -999 -999
2008-05-05 10:02:20 51°13.665 2°55.954 -999 -999 -999 -999 -999
2008-05-05 10:02:25 51°13.665 2°55.954 -999 -999 -999 -999 -999
2008-05-05 10:02:30 51°13.665 2°55.954 -999 -999 -999 -999 -999
2008-05-05 10:02:35 51°13.665 2°55.955 -999 -999 -999 -999 -999
2008-05-05 10:02:40 51°13.665 2°55.955 -999 -999 -999 -999 -999
2008-05-05 10:02:45 51°13.665 2°55.954 -999 -999 -999 -999 -999
2008-05-05 10:02:50 51°13.665 2°55.954 -999 -999 -999 -999 -999
2008-05-05 10:02:55 51°13.665 2°55.954 -999 -999 -999 -999 -999
2008-05-05 10:03:00 51°13.665 2°55.954 -999 -999 -999 -999 -999
2008-05-05 10:03:05 51°13.665 2°55.955 -999 -999 -999 -999 -999
2008-05-05 10:03:10 51°13.665 2°55.955 -999 -999 -999 -999 -999
2008-05-05 10:03:15 51°13.665 2°55.955 -999 -999 -999 -999 -999
2008-05-05 10:03:20 51°13.665 2°55.955 -999 -999 -999 -999 -999
2008-05-05 10:03:25 51°13.665 2°55.955 -999 -999 -999 -999 -999
2008-05-05 10:03:30 51°13.665 2°55.955 -999 -999 -999 -999 -999
2008-05-05 10:03:35 51°13.665 2°55.955 -999 -999 -999 -999 -999
2008-05-05 10:03:40 51°13.665 2°55.955 -999 -999 -999 -999 -999
2008-05-05 10:03:44 51°13.665 2°55.955 -999 -999 -999 -999 -999
2008-05-05 10:03:50 51°13.665 2°55.955 -999 -999 -999 -999 -999
2008-05-05 10:03:55 51°13.665 2°55.955 -999 -999 -999 -999 -999
2008-05-05 10:04:00 51°13.665 2°55.955 -999 -999 -999 -999 -999
2008-05-05 10:04:04 51°13.665 2°55.955 -999 -999 -999 -999 -999
2008-05-05 10:04:10 51°13.665 2°55.955 -999 -999 -999 -999 -999
2008-05-05 10:04:15 51°13.665 2°55.955 -999 -999 -999 -999 -999
2008-05-05 10:04:20 51°13.665 2°55.955 -999 -999 -999 -999 -999
2008-05-05 10:04:25 51°13.665 2°55.955 -999 -999 -999 -999 -999
2008-05-05 10:04:30 51°13.665 2°55.955 -999 -999 -999 -999 -999
2008-05-05 10:04:35 51°13.665 2°55.955 -999 -999 -999 -999 -999
2008-05-05 10:04:40 51°13.665 2°55.955 -999 -999 -999 -999 -999
2008-05-05 10:04:45 51°13.665 2°55.955 -999 -999 -999 -999 -999
2008-05-05 10:04:50 51°13.665 2°55.955 -999 -999 -999 -999 -999
2008-05-05 10:04:55 51°13.665 2°55.954 -999 -999 -999 -999 -999
2008-05-05 10:05:00 51°13.665 2°55.954 -999 -999 -999 -999 -999
2008-05-05 10:05:05 51°13.665 2°55.954 -999 -999 -999 -999 -999
2008-05-05 10:05:10 51°13.665 2°55.954 -999 -999 -999 -999 -999
2008-05-05 10:05:15 51°13.665 2°55.954 -999 -999 -999 -999 -999
2008-05-05 10:05:20 51°13.665 2°55.954 -999 -999 -999 -999 -999
2008-05-05 10:05:25 51°13.665 2°55.954 -999 -999 -999 -999 -999
2008-05-05 10:05:30 51°13.665 2°55.954 -999 -999 -999 -999 -999
2008-05-05 10:05:35 51°13.665 2°55.954 -999 -999 -999 -999 -999
2008-05-05 10:05:40 51°13.665 2°55.954 -999 -999 -999 -999 -999
2008-05-05 10:05:45 51°13.665 2°55.954 -999 -999 -999 -999 -999
2008-05-05 10:05:50 51°13.665 2°55.954 -999 -999 -999 -999 -999
2008-05-05 10:05:55 51°13.665 2°55.954 -999 -999 -999 -999 -999
2008-05-05 10:06:00 51°13.665 2°55.954 -999 -999 -999 -999 -999
2008-05-05 10:06:05 51°13.665 2°55.954 -999 -999 -999 -999 -999
2008-05-05 10:06:10 51°13.665 2°55.954 -999 -999 -999 -999 -999
2008-05-05 10:06:15 51°13.665 2°55.954 -999 -999 -999 -999 -999
2008-05-05 10:06:20 51°13.665 2°55.954 -999 -999 -999 -999 -999
2008-05-05 10:06:25 51°13.665 2°55.954 -999 -999 -999 -999 -999
2008-05-05 10:06:30 51°13.665 2°55.954 -999 -999 -999 -999 -999
2008-05-05 10:06:35 51°13.665 2°55.954 -999 -999 -999 -999 -999
2008-05-05 10:06:40 51°13.665 2°55.954 -999 -999 -999 -999 -999
2008-05-05 10:06:45 51°13.665 2°55.954 -999 -999 -999 -999 -999
2008-05-05 10:06:50 51°13.665 2°55.954 -999 -999 -999 -999 -999
2008-05-05 10:06:55 51°13.665 2°55.954 -999 -999 -999 -999 -999
2008-05-05 10:07:00 51°13.665 2°55.954 -999 -999 -999 -999 -999
2008-05-05 10:07:05 51°13.665 2°55.954 -999 -999 -999 -999 -999
2008-05-05 10:07:10 51°13.665 2°55.954 -999 -999 -999 -999 -999
2008-05-05 10:07:15 51°13.665 2°55.954 -999 -999 -999 -999 -999
2008-05-05 10:07:20 51°13.665 2°55.954 -999 -999 -999 -999 -999
2008-05-05 10:07:25 51°13.665 2°55.954 -999 -999 -999 -999 -999
2008-05-05 10:07:30 51°13.665 2°55.954 -999 -999 -999 -999 -999
2008-05-05 10:07:35 51°13.665 2°55.955 -999 -999 -999 -999 -999
2008-05-05 10:07:40 51°13.665 2°55.954 -999 -999 -999 -999 -999
2008-05-05 10:07:45 51°13.665 2°55.954 -999 -999 -999 -999 -999
2008-05-05 10:07:50 51°13.665 2°55.954 -999 -999 -999 -999 -999
2008-05-05 10:07:55 51°13.665 2°55.954 -999 -999 -999 -999 -999
2008-05-05 10:08:00 51°13.665 2°55.954 -999 -999 -999 -999 -999
2008-05-05 10:08:05 51°13.665 2°55.954 -999 -999 -999 -999 -999
2008-05-05 10:08:10 51°13.665 2°55.955 -999 -999 -999 -999 -999
2008-05-05 10:08:15 51°13.665 2°55.955 -999 -999 -999 -999 -999
2008-05-05 10:08:20 51°13.665 2°55.955 -999 -999 -999 -999 -999
2008-05-05 10:08:25 51°13.665 2°55.955 -999 -999 -999 -999 -999
2008-05-05 10:08:30 51°13.665 2°55.954 -999 -999 -999 -999 -999
2008-05-05 10:08:35 51°13.665 2°55.954 -999 -999 -999 -999 -999
2008-05-05 10:08:40 51°13.665 2°55.954 -999 -999 -999 -999 -999
2008-05-05 10:08:44 51°13.665 2°55.954 -999 -999 -999 -999 -999
2008-05-05 10:08:50 51°13.665 2°55.954 -999 -999 -999 -999 -999
2008-05-05 10:08:55 51°13.665 2°55.954 -999 -999 -999 -999 -999
2008-05-05 10:09:00 51°13.665 2°55.954 -999 -999 -999 -999 -999
2008-05-05 10:09:05 51°13.665 2°55.954 -999 -999 -999 -999 -999
2008-05-05 10:09:10 51°13.665 2°55.954 -999 -999 -999 -999 -999
2008-05-05 10:09:15 51°13.665 2°55.954 -999 -999 -999 -999 -999
2008-05-05 10:09:20 51°13.665 2°55.953 -999 -999 -999 -999 -999
2008-05-05 10:09:25 51°13.665 2°55.953 -999 -999 -999 -999 -999
2008-05-05 10:09:30 51°13.665 2°55.953 -999 -999 -999 -999 -999
2008-05-05 10:09:35 51°13.665 2°55.953 -999 -999 -999 -999 -999
2008-05-05 10:09:40 51°13.665 2°55.953 -999 -999 -999 -999 -999
2008-05-05 10:09:45 51°13.665 2°55.953 -999 -999 -999 -999 -999
2008-05-05 10:09:50 51°13.665 2°55.953 -999 -999 -999 -999 -999
2008-05-05 10:09:55 51°13.665 2°55.953 -999 -999 -999 -999 -999
2008-05-05 10:10:00 51°13.665 2°55.953 -999 -999 -999 -999 -999
2008-05-05 10:10:05 51°13.665 2°55.953 -999 -999 -999 -999 -999
2008-05-05 10:10:10 51°13.665 2°55.953 -999 -999 -999 -999 -999
2008-05-05 10:10:15 51°13.665 2°55.953 -999 -999 -999 -999 -999
2008-05-05 10:10:20 51°13.665 2°55.954 -999 -999 -999 -999 -999
2008-05-05 10:10:25 51°13.665 2°55.954 -999 -999 -999 -999 -999
2008-05-05 10:10:30 51°13.665 2°55.954 -999 -999 -999 -999 -999
2008-05-05 10:10:35 51°13.665 2°55.954 -999 -999 -999 -999 -999
2008-05-05 10:10:40 51°13.665 2°55.954 -999 -999 -999 -999 -999
2008-05-05 10:10:45 51°13.665 2°55.954 -999 -999 -999 -999 -999
2008-05-05 10:10:50 51°13.665 2°55.954 -999 -999 -999 -999 -999
2008-05-05 10:10:55 51°13.665 2°55.954 -999 -999 -999 -999 -999
2008-05-05 10:11:00 51°13.665 2°55.954 -999 -999 -999 -999 -999
2008-05-05 10:11:05 51°13.665 2°55.954 -999 -999 -999 -999 -999
2008-05-05 10:11:10 51°13.665 2°55.954 -999 -999 -999 -999 -999
2008-05-05 10:11:15 51°13.665 2°55.954 -999 -999 -999 -999 -999
2008-05-05 10:11:20 51°13.665 2°55.954 -999 -999 -999 -999 -999
2008-05-05 10:11:25 51°13.665 2°55.954 -999 -999 -999 -999 -999
2008-05-05 10:11:30 51°13.665 2°55.954 -999 -999 -999 -999 -999
2008-05-05 10:11:35 51°13.665 2°55.954 -999 -999 -999 -999 -999
2008-05-05 10:11:40 51°13.665 2°55.954 -999 -999 -999 -999 -999
2008-05-05 10:11:45 51°13.665 2°55.954 -999 -999 -999 -999 -999
2008-05-05 10:11:50 51°13.665 2°55.954 -999 -999 -999 -999 -999
2008-05-05 10:11:55 51°13.665 2°55.954 -999 -999 -999 -999 -999
2008-05-05 10:12:00 51°13.665 2°55.954 -999 -999 -999 -999 -999
2008-05-05 10:12:05 51°13.665 2°55.954 -999 -999 -999 -999 -999
2008-05-05 10:12:10 51°13.665 2°55.954 -999 -999 -999 -999 -999
2008-05-05 10:12:15 51°13.665 2°55.954 -999 -999 -999 -999 -999
2008-05-05 10:12:19 51°13.665 2°55.954 -999 -999 -999 -999 -999
2008-05-05 10:12:25 51°13.665 2°55.954 -999 -999 -999 -999 -999
2008-05-05 10:12:30 51°13.665 2°55.954 -999 -999 -999 -999 -999
2008-05-05 10:12:35 51°13.665 2°55.954 -999 -999 -999 -999 -999
2008-05-05 10:12:40 51°13.665 2°55.954 -999 -999 -999 -999 -999
2008-05-05 10:12:45 51°13.665 2°55.954 -999 -999 -999 -999 -999
2008-05-05 10:12:50 51°13.665 2°55.954 -999 -999 -999 -999 -999
2008-05-05 10:12:55 51°13.665 2°55.954 -999 -999 -999 -999 -999
2008-05-05 10:13:00 51°13.665 2°55.954 -999 -999 -999 -999 -999
2008-05-05 10:13:05 51°13.665 2°55.954 -999 -999 -999 -999 -999
2008-05-05 10:13:10 51°13.665 2°55.954 -999 -999 -999 -999 -999
2008-05-05 10:13:15 51°13.665 2°55.954 -999 -999 -999 -999 -999
2008-05-05 10:13:20 51°13.665 2°55.954 -999 -999 -999 -999 -999
2008-05-05 10:13:25 51°13.665 2°55.954 -999 -999 -999 -999 -999
2008-05-05 10:13:30 51°13.665 2°55.954 -999 -999 -999 -999 -999
2008-05-05 10:13:35 51°13.665 2°55.954 -999 -999 -999 -999 -999
2008-05-05 10:13:40 51°13.665 2°55.954 -999 -999 -999 -999 -999
2008-05-05 10:13:45 51°13.665 2°55.954 -999 -999 -999 -999 -999
2008-05-05 10:13:50 51°13.665 2°55.954 -999 -999 -999 -999 -999
2008-05-05 10:13:55 51°13.665 2°55.954 -999 -999 -999 -999 -999
2008-05-05 10:14:00 51°13.665 2°55.954 -999 -999 -999 -999 -999
2008-05-05 10:14:05 51°13.665 2°55.954 -999 -999 -999 -999 -999
2008-05-05 10:14:10 51°13.665 2°55.954 -999 -999 -999 -999 -999
2008-05-05 10:14:15 51°13.665 2°55.954 -999 -999 -999 -999 -999
2008-05-05 10:14:20 51°13.665 2°55.954 -999 -999 -999 -999 -999
2008-05-05 10:14:25 51°13.665 2°55.954 -999 -999 -999 -999 -999
2008-05-05 10:14:30 51°13.665 2°55.953 -999 -999 -999 -999 -999
2008-05-05 10:14:35 51°13.665 2°55.953 -999 -999 -999 -999 -999
2008-05-05 10:14:40 51°13.665 2°55.953 -999 -999 -999 -999 -999
2008-05-05 10:14:45 51°13.665 2°55.953 -999 -999 -999 -999 -999
2008-05-05 10:14:50 51°13.665 2°55.953 -999 -999 -999 -999 -999
2008-05-05 10:14:55 51°13.665 2°55.953 -999 -999 -999 -999 -999
2008-05-05 10:15:00 51°13.665 2°55.954 -999 -999 -999 -999 -999
2008-05-05 10:15:05 51°13.665 2°55.953 -999 -999 -999 -999 -999
2008-05-05 10:15:10 51°13.665 2°55.954 -999 -999 -999 -999 -999
2008-05-05 10:15:15 51°13.665 2°55.954 -999 -999 -999 -999 -999
2008-05-05 10:15:20 51°13.665 2°55.954 -999 -999 -999 -999 -999
2008-05-05 10:15:25 51°13.665 2°55.954 -999 -999 -999 -999 -999
2008-05-05 10:15:30 51°13.665 2°55.954 -999 -999 -999 -999 -999
2008-05-05 10:15:35 51°13.665 2°55.954 -999 -999 -999 -999 -999
2008-05-05 10:15:40 51°13.665 2°55.954 -999 -999 -999 -999 -999
2008-05-05 10:15:45 51°13.665 2°55.954 -999 -999 -999 -999 -999
2008-05-05 10:15:50 51°13.665 2°55.954 -999 -999 -999 -999 -999
2008-05-05 10:15:55 51°13.665 2°55.954 -999 -999 -999 -999 -999
2008-05-05 10:16:00 51°13.665 2°55.954 -999 -999 -999 -999 -999
2008-05-05 10:16:05 51°13.665 2°55.954 -999 -999 -999 -999 -999
2008-05-05 10:16:10 51°13.665 2°55.954 -999 -999 -999 -999 -999
2008-05-05 10:16:15 51°13.665 2°55.954 -999 -999 -999 -999 -999
2008-05-05 10:16:20 51°13.665 2°55.954 -999 -999 -999 -999 -999
2008-05-05 10:16:25 51°13.665 2°55.954 -999 -999 -999 -999 -999
2008-05-05 10:16:30 51°13.665 2°55.954 -999 -999 -999 -999 -999
2008-05-05 10:16:35 51°13.665 2°55.954 -999 -999 -999 -999 -999
2008-05-05 10:16:40 51°13.665 2°55.954 -999 -999 -999 -999 -999
2008-05-05 10:16:45 51°13.665 2°55.954 -999 -999 -999 -999 -999
2008-05-05 10:16:50 51°13.665 2°55.954 -999 -999 -999 -999 -999
2008-05-05 10:16:55 51°13.665 2°55.954 -999 -999 -999 -999 -999
2008-05-05 10:17:00 51°13.665 2°55.954 -999 -999 -999 -999 -999
2008-05-05 10:17:05 51°13.665 2°55.955 -999 -999 -999 -999 -999
2008-05-05 10:17:10 51°13.665 2°55.955 -999 -999 -999 -999 -999
2008-05-05 10:17:15 51°13.665 2°55.955 -999 -999 -999 -999 -999
2008-05-05 10:17:20 51°13.665 2°55.955 -999 -999 -999 -999 -999
2008-05-05 10:17:25 51°13.665 2°55.955 -999 -999 -999 -999 -999
2008-05-05 10:17:30 51°13.665 2°55.955 -999 -999 -999 -999 -999
2008-05-05 10:17:35 51°13.665 2°55.955 -999 -999 -999 -999 -999
2008-05-05 10:17:40 51°13.665 2°55.955 -999 -999 -999 -999 -999
2008-05-05 10:17:45 51°13.665 2°55.955 -999 -999 -999 -999 -999
2008-05-05 10:17:50 51°13.665 2°55.955 -999 -999 -999 -999 -999
2008-05-05 10:17:55 51°13.665 2°55.955 -999 -999 -999 -999 -999
2008-05-05 10:18:00 51°13.665 2°55.955 -999 -999 -999 -999 -999
2008-05-05 10:18:05 51°13.665 2°55.956 -999 -999 -999 -999 -999
2008-05-05 10:18:10 51°13.665 2°55.956 -999 -999 -999 -999 -999
2008-05-05 10:18:15 51°13.665 2°55.956 -999 -999 -999 -999 -999
2008-05-05 10:18:20 51°13.665 2°55.956 -999 -999 -999 -999 -999
2008-05-05 10:18:25 51°13.665 2°55.956 -999 -999 -999 -999 -999
2008-05-05 10:18:30 51°13.665 2°55.956 -999 -999 -999 -999 -999
2008-05-05 10:18:35 51°13.665 2°55.956 -999 -999 -999 -999 -999
2008-05-05 10:18:40 51°13.665 2°55.956 -999 -999 -999 -999 -999
2008-05-05 10:18:45 51°13.665 2°55.956 -999 -999 -999 -999 -999
2008-05-05 10:18:50 51°13.665 2°55.955 -999 -999 -999 -999 -999
2008-05-05 10:18:55 51°13.665 2°55.955 -999 -999 -999 -999 -999
2008-05-05 10:19:00 51°13.665 2°55.955 -999 -999 -999 -999 -999
2008-05-05 10:19:05 51°13.665 2°55.955 -999 -999 -999 -999 -999
2008-05-05 10:19:10 51°13.665 2°55.955 -999 -999 -999 -999 -999
2008-05-05 10:19:15 51°13.665 2°55.955 -999 -999 -999 -999 -999
2008-05-05 10:19:20 51°13.665 2°55.955 -999 -999 -999 -999 -999
2008-05-05 10:19:25 51°13.666 2°55.955 -999 -999 -999 -999 -999
2008-05-05 10:19:30 51°13.666 2°55.955 -999 -999 -999 -999 -999
2008-05-05 10:19:35 51°13.665 2°55.955 -999 -999 -999 -999 -999
2008-05-05 10:19:40 51°13.665 2°55.955 -999 -999 -999 -999 -999
2008-05-05 10:19:45 51°13.665 2°55.955 -999 -999 -999 -999 -999
2008-05-05 10:19:50 51°13.665 2°55.955 -999 -999 -999 -999 -999
2008-05-05 10:19:55 51°13.665 2°55.955 -999 -999 -999 -999 -999
2008-05-05 10:20:00 51°13.666 2°55.955 -999 -999 -999 -999 -999
2008-05-05 10:20:05 51°13.666 2°55.955 -999 -999 -999 -999 -999
2008-05-05 10:20:10 51°13.666 2°55.955 -999 -999 -999 -999 -999
2008-05-05 10:20:15 51°13.666 2°55.955 -999 -999 -999 -999 -999
2008-05-05 10:20:20 51°13.665 2°55.955 -999 -999 -999 -999 -999
2008-05-05 10:20:25 51°13.666 2°55.955 -999 -999 -999 -999 -999
2008-05-05 10:20:30 51°13.666 2°55.955 -999 -999 -999 -999 -999
2008-05-05 10:20:35 51°13.666 2°55.955 -999 -999 -999 -999 -999
2008-05-05 10:20:40 51°13.666 2°55.955 -999 -999 -999 -999 -999
2008-05-05 10:20:45 51°13.666 2°55.955 -999 -999 -999 -999 -999
2008-05-05 10:20:50 51°13.666 2°55.955 -999 -999 -999 -999 -999
2008-05-05 10:20:55 51°13.666 2°55.955 -999 -999 -999 -999 -999
2008-05-05 10:21:00 51°13.666 2°55.955 -999 -999 -999 -999 -999
2008-05-05 10:21:05 51°13.666 2°55.955 -999 -999 -999 -999 -999
2008-05-05 10:21:10 51°13.666 2°55.955 -999 -999 -999 -999 -999
2008-05-05 10:21:15 51°13.666 2°55.955 -999 -999 -999 -999 -999
2008-05-05 10:21:20 51°13.666 2°55.955 -999 -999 -999 -999 -999
2008-05-05 10:21:25 51°13.666 2°55.955 -999 -999 -999 -999 -999
2008-05-05 10:21:30 51°13.666 2°55.955 -999 -999 -999 -999 -999
2008-05-05 10:21:35 51°13.666 2°55.955 -999 -999 -999 -999 -999
2008-05-05 10:21:40 51°13.666 2°55.955 -999 -999 -999 -999 -999
2008-05-05 10:21:45 51°13.666 2°55.955 -999 -999 -999 -999 -999
2008-05-05 10:21:50 51°13.666 2°55.955 -999 -999 -999 -999 -999
2008-05-05 10:21:55 51°13.666 2°55.955 -999 -999 -999 -999 -999
2008-05-05 10:22:00 51°13.666 2°55.955 -999 -999 -999 -999 -999
2008-05-05 10:22:05 51°13.665 2°55.955 -999 -999 -999 -999 -999
2008-05-05 10:22:10 51°13.665 2°55.955 -999 -999 -999 -999 -999
2008-05-05 10:22:15 51°13.666 2°55.955 -999 -999 -999 -999 -999
2008-05-05 10:22:20 51°13.666 2°55.955 -999 -999 -999 -999 -999
2008-05-05 10:22:25 51°13.666 2°55.955 -999 -999 -999 -999 -999
2008-05-05 10:22:30 51°13.666 2°55.955 -999 -999 -999 -999 -999
2008-05-05 10:22:35 51°13.666 2°55.955 -999 -999 -999 -999 -999
2008-05-05 10:22:40 51°13.666 2°55.955 -999 -999 -999 -999 -999
2008-05-05 10:22:45 51°13.666 2°55.955 -999 -999 -999 -999 -999
2008-05-05 10:22:50 51°13.666 2°55.955 -999 -999 -999 -999 -999
2008-05-05 10:22:55 51°13.666 2°55.955 -999 -999 -999 -999 -999
2008-05-05 10:23:00 51°13.666 2°55.955 -999 -999 -999 -999 -999
2008-05-05 10:23:05 51°13.665 2°55.955 -999 -999 -999 -999 -999
2008-05-05 10:23:10 51°13.665 2°55.955 -999 -999 -999 -999 -999
2008-05-05 10:23:15 51°13.665 2°55.955 -999 -999 -999 -999 -999
2008-05-05 10:23:20 51°13.665 2°55.955 -999 -999 -999 -999 -999
2008-05-05 10:23:25 51°13.665 2°55.955 -999 -999 -999 -999 -999
2008-05-05 10:23:30 51°13.665 2°55.954 -999 -999 -999 -999 -999
2008-05-05 10:23:35 51°13.665 2°55.954 -999 -999 -999 -999 -999
2008-05-05 10:23:40 51°13.665 2°55.954 -999 -999 -999 -999 -999
2008-05-05 10:23:45 51°13.665 2°55.954 -999 -999 -999 -999 -999
2008-05-05 10:23:50 51°13.665 2°55.954 -999 -999 -999 -999 -999
2008-05-05 10:23:55 51°13.665 2°55.955 -999 -999 -999 -999 -999
2008-05-05 10:24:00 51°13.665 2°55.955 -999 -999 -999 -999 -999
2008-05-05 10:24:05 51°13.665 2°55.955 -999 -999 -999 -999 -999
2008-05-05 10:24:10 51°13.665 2°55.955 -999 -999 -999 -999 -999
2008-05-05 10:24:15 51°13.665 2°55.954 -999 -999 -999 -999 -999
2008-05-05 10:24:20 51°13.665 2°55.954 -999 -999 -999 -999 -999
2008-05-05 10:24:25 51°13.665 2°55.954 -999 -999 -999 -999 -999
2008-05-05 10:24:30 51°13.665 2°55.954 -999 -999 -999 -999 -999
2008-05-05 10:24:35 51°13.665 2°55.954 -999 -999 -999 -999 -999
2008-05-05 10:24:40 51°13.665 2°55.955 -999 -999 -999 -999 -999
2008-05-05 10:24:45 51°13.665 2°55.955 -999 -999 -999 -999 -999
2008-05-05 10:24:50 51°13.665 2°55.955 -999 -999 -999 -999 -999
2008-05-05 10:24:55 51°13.665 2°55.955 -999 -999 -999 -999 -999
2008-05-05 10:25:00 51°13.665 2°55.955 -999 -999 -999 -999 -999
2008-05-05 10:25:05 51°13.665 2°55.955 -999 -999 -999 -999 -999
2008-05-05 10:25:10 51°13.665 2°55.955 -999 -999 -999 -999 -999
2008-05-05 10:25:15 51°13.665 2°55.955 -999 -999 -999 -999 -999
2008-05-05 10:25:20 51°13.665 2°55.955 -999 -999 -999 -999 -999
2008-05-05 10:25:25 51°13.665 2°55.955 -999 -999 -999 -999 -999
2008-05-05 10:25:30 51°13.665 2°55.955 -999 -999 -999 -999 -999
2008-05-05 10:25:35 51°13.665 2°55.955 -999 -999 -999 -999 -999
2008-05-05 10:25:40 51°13.665 2°55.955 -999 -999 -999 -999 -999
2008-05-05 10:25:45 51°13.665 2°55.955 -999 -999 -999 -999 -999
2008-05-05 10:25:50 51°13.665 2°55.955 -999 -999 -999 -999 -999
2008-05-05 10:25:55 51°13.665 2°55.955 -999 -999 -999 -999 -999
2008-05-05 10:26:00 51°13.665 2°55.955 -999 -999 -999 -999 -999
2008-05-05 10:26:05 51°13.665 2°55.955 -999 -999 -999 -999 -999
2008-05-05 10:26:10 51°13.665 2°55.955 -999 -999 -999 -999 -999
2008-05-05 10:26:15 51°13.665 2°55.955 -999 -999 -999 -999 -999
2008-05-05 10:26:20 51°13.665 2°55.955 -999 -999 -999 -999 -999
2008-05-05 10:26:25 51°13.665 2°55.955 -999 -999 -999 -999 -999
2008-05-05 10:26:30 51°13.665 2°55.955 -999 -999 -999 -999 -999
2008-05-05 10:26:35 51°13.665 2°55.955 -999 -999 -999 -999 -999
2008-05-05 10:26:40 51°13.665 2°55.955 -999 -999 -999 -999 -999
2008-05-05 10:26:45 51°13.665 2°55.955 -999 -999 -999 -999 -999
2008-05-05 10:26:50 51°13.665 2°55.955 -999 -999 -999 -999 -999
2008-05-05 10:26:55 51°13.665 2°55.955 -999 -999 -999 -999 -999
2008-05-05 10:27:00 51°13.665 2°55.955 -999 -999 -999 -999 -999
2008-05-05 10:27:05 51°13.665 2°55.955 -999 -999 -999 -999 -999
2008-05-05 10:27:10 51°13.665 2°55.955 -999 -999 -999 -999 -999
2008-05-05 10:27:15 51°13.665 2°55.955 -999 -999 -999 -999 -999
2008-05-05 10:27:20 51°13.665 2°55.955 -999 -999 -999 -999 -999
2008-05-05 10:27:25 51°13.665 2°55.955 -999 -999 -999 -999 -999
2008-05-05 10:27:30 51°13.665 2°55.955 -999 -999 -999 -999 -999
2008-05-05 10:27:35 51°13.665 2°55.955 -999 -999 -999 -999 -999
2008-05-05 10:27:40 51°13.665 2°55.955 -999 -999 -999 -999 -999
2008-05-05 10:27:45 51°13.665 2°55.955 -999 -999 -999 -999 -999
2008-05-05 10:27:50 51°13.665 2°55.955 -999 -999 -999 -999 -999
2008-05-05 10:27:55 51°13.665 2°55.955 -999 -999 -999 -999 -999
2008-05-05 10:28:00 51°13.665 2°55.955 -999 -999 -999 -999 -999
2008-05-05 10:28:05 51°13.665 2°55.955 -999 -999 -999 -999 -999
2008-05-05 10:28:10 51°13.665 2°55.955 -999 -999 -999 -999 -999
2008-05-05 10:28:15 51°13.665 2°55.955 -999 -999 -999 -999 -999
2008-05-05 10:28:20 51°13.665 2°55.955 -999 -999 -999 -999 -999
2008-05-05 10:28:25 51°13.665 2°55.955 -999 -999 -999 -999 -999
2008-05-05 10:28:30 51°13.665 2°55.955 -999 -999 -999 -999 -999
2008-05-05 10:28:35 51°13.665 2°55.955 -999 -999 -999 -999 -999
2008-05-05 10:28:40 51°13.665 2°55.955 -999 -999 -999 -999 -999
2008-05-05 10:28:45 51°13.665 2°55.955 -999 -999 -999 -999 -999
2008-05-05 10:28:50 51°13.665 2°55.955 -999 -999 -999 -999 -999
2008-05-05 10:28:55 51°13.665 2°55.955 -999 -999 -999 -999 -999
2008-05-05 10:29:00 51°13.665 2°55.955 -999 -999 -999 -999 -999
2008-05-05 10:29:05 51°13.665 2°55.955 -999 -999 -999 -999 -999
2008-05-05 10:29:10 51°13.665 2°55.955 -999 -999 -999 -999 -999
2008-05-05 10:29:15 51°13.665 2°55.955 -999 -999 -999 -999 -999
2008-05-05 10:29:20 51°13.665 2°55.955 -999 -999 -999 -999 -999
2008-05-05 10:29:25 51°13.665 2°55.955 -999 -999 -999 -999 -999
2008-05-05 10:29:30 51°13.665 2°55.955 -999 -999 -999 -999 -999
2008-05-05 10:29:35 51°13.665 2°55.955 -999 -999 -999 -999 -999
2008-05-05 10:29:40 51°13.665 2°55.955 -999 -999 -999 -999 -999
2008-05-05 10:29:45 51°13.665 2°55.955 -999 -999 -999 -999 -999
2008-05-05 10:29:50 51°13.665 2°55.955 -999 -999 -999 -999 -999
2008-05-05 10:29:55 51°13.665 2°55.955 -999 -999 -999 -999 -999
2008-05-05 10:30:00 51°13.665 2°55.955 -999 -999 -999 -999 -999
2008-05-05 10:30:05 51°13.665 2°55.955 -999 -999 -999 -999 -999
2008-05-05 10:30:10 51°13.665 2°55.955 -999 -999 -999 -999 -999
2008-05-05 10:30:15 51°13.665 2°55.955 -999 -999 -999 -999 -999
2008-05-05 10:30:20 51°13.665 2°55.955 -999 -999 -999 -999 -999
2008-05-05 10:30:25 51°13.666 2°55.955 -999 -999 -999 -999 -999
2008-05-05 10:30:30 51°13.666 2°55.955 -999 -999 -999 -999 -999
2008-05-05 10:30:35 51°13.666 2°55.955 -999 -999 -999 -999 -999
2008-05-05 10:30:40 51°13.666 2°55.955 -999 -999 -999 -999 -999
2008-05-05 10:30:45 51°13.666 2°55.955 -999 -999 -999 -999 -999
2008-05-05 10:30:50 51°13.666 2°55.955 -999 -999 -999 -999 -999
2008-05-05 10:30:55 51°13.666 2°55.955 -999 -999 -999 -999 -999
2008-05-05 10:31:00 51°13.666 2°55.955 -999 -999 -999 -999 -999
2008-05-05 10:31:05 51°13.666 2°55.955 -999 -999 -999 -999 -999
2008-05-05 10:31:10 51°13.666 2°55.955 -999 -999 -999 -999 -999
2008-05-05 10:31:15 51°13.666 2°55.955 -999 -999 -999 -999 -999
2008-05-05 10:31:20 51°13.666 2°55.955 -999 -999 -999 -999 -999
2008-05-05 10:31:25 51°13.666 2°55.955 -999 -999 -999 -999 -999
2008-05-05 10:31:30 51°13.666 2°55.955 -999 -999 -999 -999 -999
2008-05-05 10:31:35 51°13.666 2°55.955 -999 -999 -999 -999 -999
2008-05-05 10:31:40 51°13.666 2°55.955 -999 -999 -999 -999 -999
2008-05-05 10:31:45 51°13.666 2°55.955 -999 -999 -999 -999 -999
2008-05-05 10:31:50 51°13.666 2°55.955 -999 -999 -999 -999 -999
2008-05-05 10:31:55 51°13.665 2°55.955 -999 -999 -999 -999 -999
2008-05-05 10:32:00 51°13.665 2°55.954 -999 -999 -999 -999 -999
2008-05-05 10:32:05 51°13.665 2°55.954 -999 -999 -999 -999 -999
2008-05-05 10:32:10 51°13.665 2°55.954 -999 -999 -999 -999 -999
2008-05-05 10:32:15 51°13.665 2°55.955 -999 -999 -999 -999 -999
2008-05-05 10:32:20 51°13.665 2°55.954 -999 -999 -999 -999 -999
2008-05-05 10:32:25 51°13.665 2°55.954 -999 -999 -999 -999 -999
2008-05-05 10:32:30 51°13.665 2°55.954 -999 -999 -999 -999 -999
2008-05-05 10:32:35 51°13.665 2°55.954 -999 -999 -999 -999 -999
2008-05-05 10:32:40 51°13.665 2°55.954 -999 -999 -999 -999 -999
2008-05-05 10:32:45 51°13.666 2°55.954 -999 -999 -999 -999 -999
2008-05-05 10:32:50 51°13.666 2°55.954 -999 -999 -999 -999 -999
2008-05-05 10:32:55 51°13.666 2°55.953 -999 -999 -999 -999 -999
2008-05-05 10:33:00 51°13.665 2°55.953 -999 -999 -999 -999 -999
2008-05-05 10:33:05 51°13.665 2°55.953 -999 -999 -999 -999 -999
2008-05-05 10:33:10 51°13.665 2°55.953 -999 -999 -999 -999 -999
2008-05-05 10:33:15 51°13.665 2°55.953 -999 -999 -999 -999 -999
2008-05-05 10:33:20 51°13.665 2°55.953 -999 -999 -999 -999 -999
2008-05-05 10:33:24 51°13.665 2°55.953 -999 -999 -999 -999 -999
2008-05-05 10:33:30 51°13.665 2°55.953 -999 -999 -999 -999 -999
2008-05-05 10:33:35 51°13.665 2°55.953 -999 -999 -999 -999 -999